Shabbona, Illinois
Current Conditions -  °F | °C
As of 4:15 PM on Friday 24 Oct 2014 (Local Time) from KRPJ Reporting Station
Clear Clear  
Wind Chill: 66°   Ceiling: Unl
Heat Index: 66°   Visibility: 10mi
Dew Point: 45°   Wind: 9mph
Humidity: 46%   Direction: 210°SSW
Pressure: 29.96"   Gusts: NA
Location:  41.77°N, 88.88°W
Report Text: KRPJ 242115Z AUTO 21008KT 10SM CLR 19/07 A2996 RMK AO2 T01910073
Loading
Personal Weather Stations






























Interactive Weather Map
Tropical Storm Tracking
New forecast layout! Learn more

10-Day Weather Forecast

Advertisements
Track Severe Weather on mobile